createdAt,value
2018-05-04T00:00:49.363Z,7.90
2018-05-04T00:02:52.758Z,8.30
2018-05-04T00:04:56.178Z,8.10
2018-05-04T00:06:59.583Z,7.70
2018-05-04T00:09:02.965Z,8.00
2018-05-04T00:11:06.367Z,8.90
2018-05-04T00:13:09.863Z,8.80
2018-05-04T00:15:13.344Z,8.60
2018-05-04T00:17:17.134Z,9.60
2018-05-04T00:19:20.583Z,9.00
2018-05-04T00:21:24.525Z,9.30
2018-05-04T00:23:29.078Z,9.60
2018-05-04T00:25:32.621Z,9.60
2018-05-04T00:27:36.096Z,9.30
2018-05-04T00:29:39.536Z,9.60
2018-05-04T00:31:42.958Z,9.70
2018-05-04T00:33:46.433Z,10.00
2018-05-04T00:35:49.917Z,10.10
2018-05-04T00:37:53.344Z,10.10
2018-05-04T00:39:56.782Z,10.50
2018-05-04T00:42:00.750Z,10.70
2018-05-04T00:44:04.919Z,11.00
2018-05-04T00:46:08.254Z,11.00
2018-05-04T00:48:12.476Z,11.20
2018-05-04T00:50:16.567Z,11.40
2018-05-04T00:52:20.756Z,11.20
2018-05-04T00:54:24.149Z,11.10
2018-05-04T00:56:27.767Z,11.60
2018-05-04T00:58:31.925Z,11.70
2018-05-04T01:00:35.857Z,11.40
2018-05-04T01:02:39.241Z,11.90
2018-05-04T01:04:42.678Z,12.10
2018-05-04T01:06:47.782Z,11.80
2018-05-04T01:08:51.175Z,12.10
2018-05-04T01:10:54.531Z,11.90
2018-05-04T01:12:57.949Z,12.10
2018-05-04T01:15:02.156Z,12.30
2018-05-04T01:17:07.475Z,12.20
2018-05-04T01:19:11.727Z,12.30
2018-05-04T01:21:15.178Z,12.30
2018-05-04T01:23:18.579Z,12.80
2018-05-04T01:25:22.093Z,13.40
2018-05-04T01:27:25.437Z,13.60
2018-05-04T01:29:29.593Z,13.20
2018-05-04T01:31:33.354Z,13.10
2018-05-04T01:33:36.758Z,13.60
2018-05-04T01:35:40.204Z,13.20
2018-05-04T01:37:43.696Z,13.40
2018-05-04T01:39:47.822Z,14.40
2018-05-04T01:41:51.928Z,13.70
2018-05-04T01:43:55.415Z,13.50
2018-05-04T01:45:58.942Z,14.20
2018-05-04T01:48:02.327Z,13.90
2018-05-04T01:50:06.475Z,14.00
2018-05-04T01:52:09.965Z,14.20
2018-05-04T01:54:13.337Z,14.00
2018-05-04T01:56:16.727Z,13.90
2018-05-04T01:58:20.866Z,14.00
2018-05-04T02:00:25.177Z,15.50
2018-05-04T02:02:28.517Z,15.50
2018-05-04T02:04:31.889Z,15.40
2018-05-04T02:06:35.252Z,16.20
2018-05-04T02:08:39.265Z,16.10
2018-05-04T02:10:42.632Z,17.30
2018-05-04T02:12:46.778Z,17.60
2018-05-04T02:14:50.871Z,17.50
2018-05-04T02:16:54.254Z,17.50
2018-05-04T02:18:57.650Z,17.50
2018-05-04T02:21:01.622Z,17.90
2018-05-04T02:23:05.778Z,18.10
2018-05-04T02:25:10.939Z,18.00
2018-05-04T02:27:14.542Z,18.20
2018-05-04T02:29:17.944Z,19.10
2018-05-04T02:31:21.367Z,19.80
2018-05-04T02:33:25.493Z,20.80
2018-05-04T02:35:28.911Z,20.70
2018-05-04T02:37:32.323Z,21.40
2018-05-04T02:39:36.489Z,21.50
2018-05-04T02:41:39.861Z,21.00
2018-05-04T02:43:44.022Z,21.30
2018-05-04T02:45:47.372Z,21.60
2018-05-04T02:47:50.701Z,21.60
2018-05-04T02:49:54.046Z,22.20
2018-05-04T02:51:58.137Z,22.20
2018-05-04T02:54:01.490Z,22.30
2018-05-04T02:56:04.847Z,22.30
2018-05-04T02:58:09.076Z,22.30
2018-05-04T03:00:12.424Z,22.30
2018-05-04T03:02:16.556Z,22.30
2018-05-04T03:04:20.719Z,21.80
2018-05-04T03:06:24.073Z,21.90
2018-05-04T03:08:27.434Z,21.90
2018-05-04T03:10:31.705Z,22.20
2018-05-04T03:12:35.020Z,22.10
2018-05-04T03:14:38.460Z,21.00
2018-05-04T03:16:41.832Z,21.30
2018-05-04T03:18:45.208Z,21.30
2018-05-04T03:20:48.554Z,21.00
2018-05-04T03:22:51.874Z,20.90
2018-05-04T03:24:55.273Z,20.00
2018-05-04T03:26:59.554Z,20.50
2018-05-04T03:29:02.944Z,20.50
2018-05-04T03:31:06.266Z,20.30
2018-05-04T03:33:10.461Z,20.40
2018-05-04T03:35:13.947Z,20.80
2018-05-04T03:37:17.321Z,20.70
2018-05-04T03:39:20.733Z,19.80
2018-05-04T03:41:24.105Z,20.20
2018-05-04T03:43:27.464Z,20.40
2018-05-04T03:45:31.587Z,20.60
2018-05-04T03:47:34.926Z,20.60
2018-05-04T03:49:38.311Z,21.00
2018-05-04T03:51:41.710Z,20.40
2018-05-04T03:53:45.187Z,20.50
2018-05-04T03:55:48.526Z,21.10
2018-05-04T03:58:03.771Z,20.90
2018-05-04T04:00:19.764Z,20.60
2018-05-04T04:02:35.106Z,21.10
2018-05-04T04:04:38.343Z,21.00
2018-05-04T04:06:41.741Z,21.20
2018-05-04T04:08:45.178Z,22.20
2018-05-04T04:10:48.546Z,22.00
2018-05-04T04:12:51.891Z,21.50
2018-05-04T04:14:55.295Z,21.50
2018-05-04T04:16:58.652Z,21.60
2018-05-04T04:19:02.044Z,22.30
2018-05-04T04:21:05.445Z,22.10
2018-05-04T04:23:08.861Z,22.50
2018-05-04T04:25:12.990Z,23.00
2018-05-04T04:27:17.076Z,24.00
2018-05-04T04:29:20.446Z,23.50
2018-05-04T04:31:25.275Z,23.90
2018-05-04T04:33:28.718Z,24.40
2018-05-04T04:35:32.845Z,25.70
2018-05-04T04:37:36.200Z,25.30
2018-05-04T04:39:39.664Z,24.90
2018-05-04T04:41:43.009Z,25.30
2018-05-04T04:43:47.092Z,25.80
2018-05-04T04:45:50.698Z,26.30
2018-05-04T04:47:54.810Z,26.40
2018-05-04T04:49:58.220Z,26.50
2018-05-04T04:52:02.308Z,26.20
2018-05-04T04:54:05.662Z,26.30
2018-05-04T04:56:09.851Z,27.30
2018-05-04T04:58:13.220Z,27.20
2018-05-04T05:00:16.641Z,27.00
2018-05-04T05:02:19.989Z,27.80
2018-05-04T05:04:24.133Z,27.80
2018-05-04T05:06:27.545Z,27.90
2018-05-04T05:08:30.855Z,27.70
2018-05-04T05:10:34.199Z,28.70
2018-05-04T05:12:37.531Z,28.50
2018-05-04T05:14:40.893Z,27.90
2018-05-04T05:16:44.233Z,28.00
2018-05-04T05:18:47.576Z,27.80
2018-05-04T05:20:50.945Z,28.00
2018-05-04T05:22:55.020Z,27.00
2018-05-04T05:24:58.397Z,27.20
2018-05-04T05:27:01.760Z,26.50
2018-05-04T05:29:05.114Z,25.90
2018-05-04T05:31:08.480Z,26.10
2018-05-04T05:33:11.842Z,26.10
2018-05-04T05:35:15.216Z,25.10
2018-05-04T05:37:18.533Z,25.30
2018-05-04T05:39:21.860Z,25.40
2018-05-04T05:41:25.241Z,25.30
2018-05-04T05:43:28.604Z,26.40
2018-05-04T05:45:32.073Z,26.90
2018-05-04T05:47:35.419Z,28.80
2018-05-04T05:49:39.573Z,22.90
2018-05-04T05:51:42.936Z,22.80
2018-05-04T05:53:46.264Z,23.40
2018-05-04T05:55:49.681Z,19.90
2018-05-04T05:57:53.066Z,19.10
2018-05-04T05:59:56.440Z,19.90
2018-05-04T06:02:00.429Z,19.80
2018-05-04T06:04:03.781Z,20.20
2018-05-04T06:06:07.134Z,18.90
2018-05-04T06:08:10.474Z,20.80
2018-05-04T06:10:13.836Z,20.10
2018-05-04T06:12:17.962Z,18.20
2018-05-04T06:14:21.286Z,18.60
2018-05-04T06:16:25.492Z,17.50
2018-05-04T06:18:28.821Z,17.60
2018-05-04T06:20:32.255Z,15.60
2018-05-04T06:22:35.645Z,14.60
2018-05-04T06:24:38.965Z,14.20
2018-05-04T06:26:43.188Z,12.30
2018-05-04T06:28:46.506Z,11.60
2018-05-04T06:30:49.893Z,11.50
2018-05-04T06:32:53.254Z,11.10
2018-05-04T06:34:57.420Z,10.50
2018-05-04T06:37:00.734Z,10.60
2018-05-04T06:39:04.052Z,8.30
2018-05-04T06:41:07.459Z,8.20
2018-05-04T06:43:11.595Z,8.90
2018-05-04T06:45:14.984Z,7.10
2018-05-04T06:47:18.364Z,8.60
2018-05-04T06:49:21.742Z,8.80
2018-05-04T06:51:25.160Z,7.50
2018-05-04T06:53:28.534Z,6.50
2018-05-04T06:55:31.922Z,5.10
2018-05-04T06:57:35.280Z,6.00
2018-05-04T06:59:38.621Z,5.10
2018-05-04T07:01:42.074Z,4.90
2018-05-04T07:03:46.180Z,5.50
2018-05-04T07:05:49.531Z,5.60
2018-05-04T07:07:52.881Z,4.20
2018-05-04T07:09:56.287Z,3.80
2018-05-04T07:11:59.696Z,4.00
2018-05-04T07:14:03.019Z,3.00
2018-05-04T07:16:06.416Z,3.00
2018-05-04T07:18:10.570Z,3.70
2018-05-04T07:20:13.978Z,3.10
2018-05-04T07:22:17.330Z,3.00
2018-05-04T07:24:20.663Z,3.60
2018-05-04T07:26:24.089Z,3.00
2018-05-04T07:28:27.449Z,4.20
2018-05-04T07:30:30.841Z,4.40
2018-05-04T07:32:34.169Z,4.90
2018-05-04T07:34:38.292Z,4.30
2018-05-04T07:36:41.705Z,3.80
2018-05-04T07:38:45.064Z,4.50
2018-05-04T07:40:48.451Z,6.00
2018-05-04T07:42:52.607Z,4.30
2018-05-04T07:44:56.699Z,3.40
2018-05-04T07:47:00.849Z,2.40
2018-05-04T07:49:04.171Z,1.70
2018-05-04T07:51:08.335Z,2.40
2018-05-04T07:53:11.668Z,2.30
2018-05-04T07:55:15.069Z,2.40
2018-05-04T07:57:18.463Z,1.90
2018-05-04T07:59:22.674Z,1.40
2018-05-04T08:01:26.077Z,1.40
2018-05-04T08:03:30.218Z,2.40
2018-05-04T08:05:33.610Z,1.80
2018-05-04T08:07:36.998Z,1.00
2018-05-04T08:09:41.100Z,1.00
2018-05-04T08:11:45.215Z,1.00
2018-05-04T08:13:49.319Z,1.00
2018-05-04T08:15:53.013Z,1.00
2018-05-04T08:17:57.144Z,1.00
2018-05-04T08:20:00.591Z,1.00
2018-05-04T08:22:03.918Z,1.00
2018-05-04T08:24:07.303Z,1.00
2018-05-04T08:26:10.766Z,1.00
2018-05-04T08:28:14.094Z,1.00
2018-05-04T08:30:17.500Z,1.00
2018-05-04T08:32:20.877Z,1.00
2018-05-04T08:34:24.285Z,1.00
2018-05-04T08:36:27.676Z,1.00
2018-05-04T08:38:31.018Z,1.00
2018-05-04T08:40:34.430Z,1.00
2018-05-04T08:42:38.551Z,1.00
2018-05-04T08:44:41.957Z,1.00
2018-05-04T08:46:45.330Z,1.00
2018-05-04T08:48:49.430Z,1.00
2018-05-04T08:50:53.625Z,1.00
2018-05-04T08:52:57.766Z,1.00
2018-05-04T08:55:01.167Z,1.00
2018-05-04T08:57:05.350Z,1.00
2018-05-04T08:59:08.778Z,1.00
2018-05-04T09:01:12.221Z,1.00
2018-05-04T09:03:15.597Z,1.00
2018-05-04T09:05:19.132Z,1.00
2018-05-04T09:07:22.456Z,1.00
2018-05-04T09:09:25.812Z,1.00
2018-05-04T09:11:29.208Z,1.00
2018-05-04T09:13:32.601Z,1.00
2018-05-04T09:15:35.989Z,1.00
2018-05-04T09:17:39.380Z,1.00
2018-05-04T09:19:42.780Z,1.00
2018-05-04T09:21:46.921Z,1.00
2018-05-04T09:23:51.027Z,1.00
2018-05-04T09:25:54.442Z,1.00
2018-05-04T09:27:57.825Z,1.00
2018-05-04T09:30:01.188Z,1.00
2018-05-04T09:32:04.660Z,1.00
2018-05-04T09:34:08.792Z,1.00
2018-05-04T09:36:12.199Z,1.00
2018-05-04T09:38:15.534Z,1.00
2018-05-04T09:40:19.171Z,1.00
2018-05-04T09:42:23.385Z,1.00
2018-05-04T09:44:26.727Z,1.00
2018-05-04T09:46:30.105Z,1.00
2018-05-04T09:48:33.461Z,1.00
2018-05-04T09:50:37.873Z,1.00
2018-05-04T09:52:42.036Z,1.00
2018-05-04T09:54:45.428Z,1.00
2018-05-04T09:56:48.899Z,1.00
2018-05-04T09:58:52.238Z,1.00
2018-05-04T10:00:55.632Z,1.00
2018-05-04T10:02:59.743Z,1.00
2018-05-04T10:05:03.908Z,1.00
2018-05-04T10:07:07.256Z,1.00
2018-05-04T10:09:10.621Z,1.00
2018-05-04T10:11:13.984Z,1.00
2018-05-04T10:13:18.067Z,1.00
2018-05-04T10:15:22.177Z,1.00
2018-05-04T10:17:26.314Z,1.00
2018-05-04T10:19:29.718Z,1.00
2018-05-04T10:21:33.070Z,1.00
2018-05-04T10:23:36.441Z,1.00
2018-05-04T10:25:39.768Z,1.00
2018-05-04T10:27:43.126Z,1.00
2018-05-04T10:29:47.232Z,1.00
2018-05-04T10:31:50.630Z,1.00
2018-05-04T10:33:53.954Z,1.00
2018-05-04T10:35:57.334Z,1.00
2018-05-04T10:38:00.683Z,1.00
2018-05-04T10:40:04.018Z,1.00
2018-05-04T10:42:07.380Z,1.00
2018-05-04T10:44:10.724Z,1.00
2018-05-04T10:46:14.110Z,1.00
2018-05-04T10:48:18.266Z,1.00
2018-05-04T10:50:21.649Z,1.00
2018-05-04T10:52:25.110Z,1.00
2018-05-04T10:54:28.482Z,1.00
2018-05-04T10:56:31.964Z,1.00
2018-05-04T10:58:35.381Z,1.00
2018-05-04T11:00:38.855Z,1.00
2018-05-04T11:02:42.260Z,1.00
2018-05-04T11:04:45.657Z,1.00
2018-05-04T11:06:49.068Z,1.00
2018-05-04T11:08:52.427Z,1.00
2018-05-04T11:10:55.823Z,1.00
2018-05-04T11:13:00.015Z,1.00
2018-05-04T11:15:04.189Z,1.00
2018-05-04T11:17:07.590Z,1.00
2018-05-04T11:19:10.947Z,1.00
2018-05-04T11:21:15.156Z,1.00
2018-05-04T11:23:18.522Z,1.00
2018-05-04T11:25:21.959Z,1.00
2018-05-04T11:27:26.067Z,1.00
2018-05-04T11:29:29.395Z,1.00
2018-05-04T11:31:32.880Z,1.00
2018-05-04T11:33:36.313Z,1.00
2018-05-04T11:35:39.689Z,1.00
2018-05-04T11:37:43.898Z,1.00
2018-05-04T11:39:47.286Z,1.00
2018-05-04T11:41:51.391Z,1.00
2018-05-04T11:43:55.571Z,1.00
2018-05-04T11:45:58.943Z,1.00
2018-05-04T11:48:02.328Z,1.00
2018-05-04T11:50:05.726Z,1.00
2018-05-04T11:52:09.275Z,1.00
2018-05-04T11:54:13.457Z,1.00
2018-05-04T11:56:16.989Z,1.00
2018-05-04T11:58:21.085Z,1.00
2018-05-04T12:00:24.469Z,1.00
2018-05-04T12:02:28.088Z,1.00
2018-05-04T12:04:32.365Z,1.00
2018-05-04T12:06:36.695Z,1.00
2018-05-04T12:08:40.991Z,1.00
2018-05-04T12:10:45.316Z,1.00
2018-05-04T12:12:49.636Z,1.00
2018-05-04T12:14:53.035Z,1.00
2018-05-04T12:16:56.429Z,1.00
2018-05-04T12:18:59.789Z,1.00
2018-05-04T12:21:03.139Z,1.00
2018-05-04T12:23:07.315Z,1.00
2018-05-04T12:25:10.707Z,1.00
2018-05-04T12:27:14.099Z,1.00
2018-05-04T12:29:17.540Z,1.00
2018-05-04T12:31:20.986Z,1.00
2018-05-04T12:33:24.482Z,1.00
2018-05-04T12:35:28.753Z,1.00
2018-05-04T12:37:32.538Z,1.00
2018-05-04T12:39:36.825Z,1.00
2018-05-04T12:41:40.251Z,1.00
2018-05-04T12:43:43.657Z,1.00
2018-05-04T12:45:46.973Z,1.00
2018-05-04T12:47:50.421Z,1.00
2018-05-04T12:49:53.734Z,1.00
2018-05-04T12:51:57.131Z,1.00
2018-05-04T12:54:01.288Z,1.00
2018-05-04T12:56:05.547Z,1.00
2018-05-04T12:58:10.114Z,1.00
2018-05-04T13:00:13.594Z,1.00
2018-05-04T13:02:17.851Z,1.00
2018-05-04T13:04:21.252Z,1.00
2018-05-04T13:06:24.641Z,1.00
2018-05-04T13:08:28.182Z,1.00
2018-05-04T13:10:31.564Z,1.00
2018-05-04T13:12:35.904Z,1.00
2018-05-04T13:14:39.240Z,1.00
2018-05-04T13:16:43.427Z,1.00
2018-05-04T13:18:47.579Z,1.00
2018-05-04T13:20:51.067Z,1.00
2018-05-04T13:22:54.531Z,1.00
2018-05-04T13:24:58.667Z,1.00
2018-05-04T13:27:02.095Z,1.00
2018-05-04T13:29:06.235Z,1.00
2018-05-04T13:31:10.353Z,1.00
2018-05-04T13:33:14.518Z,1.00
2018-05-04T13:35:18.366Z,1.00
2018-05-04T13:37:21.817Z,1.00
2018-05-04T13:39:25.324Z,1.00
2018-05-04T13:41:28.903Z,1.00
2018-05-04T13:43:32.402Z,1.00
2018-05-04T13:45:35.802Z,1.00
2018-05-04T13:47:39.604Z,1.00
2018-05-04T13:49:43.116Z,1.00
2018-05-04T13:51:46.508Z,1.00
2018-05-04T13:53:50.743Z,1.00
2018-05-04T13:55:54.300Z,1.00
2018-05-04T13:57:57.706Z,1.00
2018-05-04T14:00:01.050Z,1.00
2018-05-04T14:02:04.477Z,1.00
2018-05-04T14:04:07.906Z,1.00
2018-05-04T14:06:12.037Z,1.00
2018-05-04T14:08:15.458Z,1.00
2018-05-04T14:10:18.832Z,1.00
2018-05-04T14:12:22.876Z,1.00
2018-05-04T14:14:27.627Z,1.00
2018-05-04T14:16:32.019Z,1.00
2018-05-04T14:18:35.732Z,1.00
2018-05-04T14:20:39.108Z,1.00
2018-05-04T14:22:43.275Z,1.00
2018-05-04T14:24:46.622Z,1.00
2018-05-04T14:26:50.022Z,1.00
2018-05-04T14:28:53.385Z,1.00
2018-05-04T14:30:56.791Z,1.00
2018-05-04T14:33:00.985Z,1.00
2018-05-04T14:35:04.383Z,1.00
2018-05-04T14:37:07.758Z,1.00
2018-05-04T14:39:11.121Z,1.00
2018-05-04T14:41:15.407Z,1.00
2018-05-04T14:43:20.629Z,1.00
2018-05-04T14:45:24.207Z,1.00
2018-05-04T14:47:27.613Z,1.00
2018-05-04T14:49:31.005Z,1.00
2018-05-04T14:51:34.544Z,1.00
2018-05-04T14:53:37.914Z,1.00
2018-05-04T14:55:41.272Z,1.00
2018-05-04T14:57:44.667Z,1.00
2018-05-04T14:59:48.039Z,1.00
2018-05-04T15:01:52.157Z,1.00
2018-05-04T15:03:55.561Z,1.00
2018-05-04T15:05:58.944Z,1.00
2018-05-04T15:08:02.333Z,1.00
2018-05-04T15:10:05.716Z,1.00
2018-05-04T15:12:09.113Z,1.00
2018-05-04T15:14:12.543Z,1.00
2018-05-04T15:16:15.868Z,1.00
2018-05-04T15:18:20.026Z,1.00
2018-05-04T15:22:55.619Z,1.00
2018-05-04T15:24:59.847Z,1.00
2018-05-04T15:27:03.558Z,1.00
2018-05-04T15:29:07.140Z,1.00
2018-05-04T15:31:10.681Z,1.00
2018-05-04T15:33:14.094Z,1.00
2018-05-04T15:35:17.409Z,1.00
2018-05-04T15:37:21.557Z,1.00
2018-05-04T15:39:24.932Z,1.00
2018-05-04T15:41:28.381Z,1.00
2018-05-04T15:43:31.721Z,1.00
2018-05-04T15:45:35.059Z,1.00
2018-05-04T15:47:38.404Z,1.00
2018-05-04T15:49:41.713Z,1.00
2018-05-04T15:51:50.758Z,1.00
2018-05-04T15:53:54.190Z,1.00
2018-05-04T15:55:59.054Z,1.00
2018-05-04T15:58:04.292Z,1.00
2018-05-04T16:00:07.721Z,1.00
2018-05-04T16:02:11.149Z,1.00
2018-05-04T16:04:14.479Z,1.00
2018-05-04T16:06:17.826Z,1.00
2018-05-04T16:08:21.964Z,1.00
2018-05-04T16:10:25.357Z,1.00
2018-05-04T16:12:28.730Z,1.00
2018-05-04T16:14:32.283Z,1.00
2018-05-04T16:16:38.303Z,1.00
2018-05-04T16:18:45.091Z,1.00
2018-05-04T16:20:49.041Z,1.00
2018-05-04T16:22:53.201Z,1.00
2018-05-04T16:24:56.530Z,1.00
2018-05-04T16:26:59.872Z,1.00
2018-05-04T16:29:03.263Z,1.00
2018-05-04T16:31:06.574Z,1.00
2018-05-04T16:33:10.790Z,1.00
2018-05-04T16:35:14.160Z,1.00
2018-05-04T16:37:18.064Z,1.00
2018-05-04T16:39:21.627Z,1.00
2018-05-04T16:41:25.201Z,1.00
2018-05-04T16:43:29.505Z,1.00
2018-05-04T16:45:32.901Z,1.00
2018-05-04T16:47:42.016Z,1.00
2018-05-04T16:49:45.336Z,1.00
2018-05-04T16:51:48.974Z,1.00
2018-05-04T16:53:52.336Z,1.00
2018-05-04T16:55:56.596Z,1.00
2018-05-04T16:58:00.002Z,1.00
2018-05-04T17:00:03.388Z,1.00
2018-05-04T17:02:07.635Z,1.00
2018-05-04T17:04:11.081Z,1.00
2018-05-04T17:06:14.463Z,1.00
2018-05-04T17:08:17.934Z,1.00
2018-05-04T17:10:21.277Z,1.00
2018-05-04T17:12:24.691Z,1.00
2018-05-04T17:14:28.883Z,1.00
2018-05-04T17:16:32.273Z,1.00
2018-05-04T17:18:35.750Z,1.00
2018-05-04T17:20:39.158Z,1.00
2018-05-04T17:22:43.918Z,1.00
2018-05-04T17:24:47.379Z,1.00
2018-05-04T17:26:50.729Z,1.00
2018-05-04T17:28:54.083Z,1.00
2018-05-04T17:30:57.451Z,1.00
2018-05-04T17:33:00.906Z,1.00
2018-05-04T17:35:04.242Z,1.00
2018-05-04T17:37:08.373Z,1.00
2018-05-04T17:39:12.502Z,1.00
2018-05-04T17:41:16.604Z,1.00
2018-05-04T17:43:20.939Z,1.00
2018-05-04T17:45:24.366Z,1.00
2018-05-04T17:47:27.727Z,1.00
2018-05-04T17:49:31.534Z,1.00
2018-05-04T17:51:34.961Z,1.00
2018-05-04T17:53:39.137Z,1.00
2018-05-04T17:55:42.494Z,1.00
2018-05-04T17:57:45.892Z,1.00
2018-05-04T17:59:50.000Z,1.00
2018-05-04T18:01:54.114Z,1.00
2018-05-04T18:03:57.501Z,1.00
2018-05-04T18:06:01.661Z,1.00
2018-05-04T18:08:06.551Z,1.00
2018-05-04T18:10:11.095Z,1.00
2018-05-04T18:12:14.750Z,1.00
2018-05-04T18:14:18.192Z,1.00
2018-05-04T18:16:21.671Z,1.00
2018-05-04T18:18:25.179Z,1.00
2018-05-04T18:20:28.501Z,1.00
2018-05-04T18:22:32.635Z,1.00
2018-05-04T18:24:36.044Z,1.00
2018-05-04T18:26:40.132Z,1.00
2018-05-04T18:28:43.479Z,1.00
2018-05-04T18:30:46.876Z,1.00
2018-05-04T18:32:50.224Z,1.00
2018-05-04T18:34:54.345Z,1.00
2018-05-04T18:36:58.424Z,1.00
2018-05-04T18:39:01.826Z,1.00
2018-05-04T18:41:05.944Z,1.00
2018-05-04T18:43:09.328Z,1.00
2018-05-04T18:45:13.422Z,1.00
2018-05-04T18:47:16.746Z,1.00
2018-05-04T18:49:20.165Z,1.00
2018-05-04T18:51:23.510Z,1.00
2018-05-04T18:53:26.929Z,1.00
2018-05-04T18:55:31.061Z,1.00
2018-05-04T18:57:34.570Z,1.00
2018-05-04T18:59:39.955Z,1.00
2018-05-04T19:01:43.747Z,1.00
2018-05-04T19:03:47.255Z,1.00
2018-05-04T19:05:50.597Z,1.00
2018-05-04T19:07:53.988Z,1.00
2018-05-04T19:09:57.395Z,1.00
2018-05-04T19:12:01.755Z,1.00
2018-05-04T19:14:05.822Z,1.00
2018-05-04T19:16:09.750Z,1.00
2018-05-04T19:18:13.090Z,1.00
2018-05-04T19:20:16.446Z,1.00
2018-05-04T19:22:19.802Z,1.00
2018-05-04T19:24:23.957Z,1.00
2018-05-04T19:26:28.046Z,1.00
2018-05-04T19:28:32.169Z,1.00
2018-05-04T19:30:36.264Z,1.00
2018-05-04T19:32:40.385Z,1.00
2018-05-04T19:34:44.971Z,1.00
2018-05-04T19:36:48.265Z,1.00
2018-05-04T19:38:51.620Z,1.00
2018-05-04T19:40:54.946Z,1.00
2018-05-04T19:42:58.279Z,1.00
2018-05-04T19:45:02.917Z,1.00
2018-05-04T19:47:06.702Z,1.00
2018-05-04T19:49:10.061Z,1.00
2018-05-04T19:51:13.399Z,1.00
2018-05-04T19:53:17.342Z,1.00
2018-05-04T19:55:22.523Z,1.00
2018-05-04T19:57:26.738Z,1.00
2018-05-04T19:59:30.165Z,1.00
2018-05-04T20:01:33.487Z,1.00
2018-05-04T20:03:36.834Z,1.00
2018-05-04T20:05:40.511Z,1.00
2018-05-04T20:07:43.822Z,1.00
2018-05-04T20:09:47.167Z,1.00
2018-05-04T20:11:50.487Z,1.00
2018-05-04T20:13:53.865Z,1.00
2018-05-04T20:15:57.967Z,1.00
2018-05-04T20:18:02.068Z,1.00
2018-05-04T20:20:06.229Z,1.00
2018-05-04T20:22:09.575Z,1.00
2018-05-04T20:24:12.946Z,1.10
2018-05-04T20:26:16.275Z,1.00
2018-05-04T20:28:19.648Z,1.00
2018-05-04T20:30:23.736Z,1.00
2018-05-04T20:32:27.091Z,1.00
2018-05-04T20:34:30.445Z,1.10
2018-05-04T20:36:34.532Z,1.90
2018-05-04T20:38:37.896Z,1.50
2018-05-04T20:40:41.991Z,2.00
2018-05-04T20:42:46.071Z,2.00
2018-05-04T20:44:50.176Z,1.70
2018-05-04T20:46:53.557Z,1.30
2018-05-04T20:48:56.909Z,1.40
2018-05-04T20:51:00.240Z,1.70
2018-05-04T20:53:04.350Z,2.30
2018-05-04T21:38:25.234Z,5.10
2018-05-04T21:40:29.681Z,5.50
2018-05-04T21:42:33.287Z,5.70
2018-05-04T21:44:36.678Z,5.40
2018-05-04T21:46:40.022Z,5.70
2018-05-04T21:48:43.365Z,5.60
2018-05-04T21:50:46.700Z,5.90
2018-05-04T21:52:50.017Z,5.70
2018-05-04T21:54:53.424Z,5.60
2018-05-04T21:56:57.619Z,6.10
2018-05-04T21:59:01.019Z,6.40
2018-05-04T22:01:05.099Z,6.40
2018-05-04T22:03:09.254Z,6.40
2018-05-04T22:05:12.752Z,6.60
2018-05-04T22:07:16.119Z,6.50
2018-05-04T22:09:20.252Z,6.80
2018-05-04T22:11:23.583Z,7.00
2018-05-04T22:13:26.907Z,7.10
2018-05-04T22:15:30.269Z,7.30
2018-05-04T22:17:34.361Z,7.30
2018-05-04T22:19:37.708Z,7.40
2018-05-04T22:21:41.035Z,7.00
2018-05-04T22:23:44.369Z,7.60
2018-05-04T22:25:48.468Z,7.80
2018-05-04T22:27:52.609Z,8.10
2018-05-04T22:29:55.969Z,8.00
2018-05-04T22:31:59.297Z,7.60
2018-05-04T22:34:02.649Z,8.10
2018-05-04T22:36:05.968Z,7.80
2018-05-04T22:38:09.334Z,8.10
2018-05-04T22:40:12.701Z,8.20
2018-05-04T22:42:17.900Z,9.10
2018-05-04T22:44:21.812Z,8.70
2018-05-04T22:46:27.192Z,9.50
2018-05-04T22:48:30.953Z,9.30
2018-05-04T22:50:36.127Z,9.30
2018-05-04T22:52:40.234Z,9.60
2018-05-04T22:54:43.576Z,9.80
2018-05-04T22:56:47.855Z,10.50
2018-05-04T22:58:51.182Z,9.80
2018-05-04T23:00:54.534Z,10.50
2018-05-04T23:02:57.903Z,9.50
2018-05-04T23:05:02.089Z,9.90
2018-05-04T23:07:05.403Z,9.70
2018-05-04T23:09:08.865Z,9.10
2018-05-04T23:11:12.149Z,10.20
2018-05-04T23:13:16.172Z,9.20
2018-05-04T23:15:19.531Z,9.30
2018-05-04T23:17:22.856Z,8.80
2018-05-04T23:19:26.219Z,9.00
2018-05-04T23:21:30.298Z,10.40
2018-05-04T23:23:33.638Z,10.30
2018-05-04T23:25:37.750Z,10.60
2018-05-04T23:27:41.069Z,10.60
2018-05-04T23:29:44.782Z,10.60
2018-05-04T23:31:48.625Z,10.40
2018-05-04T23:33:52.318Z,10.20
2018-05-04T23:35:57.706Z,10.00
2018-05-04T23:38:02.980Z,9.70
2018-05-04T23:40:06.453Z,9.80
2018-05-04T23:42:09.931Z,9.80
2018-05-04T23:44:14.200Z,9.70
2018-05-04T23:46:17.671Z,9.60
2018-05-04T23:48:21.801Z,9.40
2018-05-04T23:50:26.070Z,9.60
2018-05-04T23:52:29.723Z,9.90
2018-05-04T23:54:33.250Z,9.40
2018-05-04T23:56:37.525Z,10.00
2018-05-04T23:58:40.989Z,9.90
